Time;durP1;ratioP1;P1;durP2;ratioP2;P2;SDS_P1;SDS_P2;PMS_P1;PMS_P2;Temp;Humidity;BMP_temperature;BMP_pressure;BME280_temperature;BME280_humidity;BME280_pressure;Samples;Min_cycle;Max_cycle;Signal;HPM_P1;HPM_P2
2023/04/28 00:00:46;;;;;;;12.77;8.70;;;12.30;99.90;;;;;;4974008;28;20681;-67
2023/04/28 00:03:12;;;;;;;10.67;9.50;;;12.30;99.90;;;;;;4974229;28;20569;-68
2023/04/28 00:05:37;;;;;;;11.90;9.20;;;12.20;99.90;;;;;;4969958;28;20447;-67
2023/04/28 00:08:03;;;;;;;10.77;9.17;;;12.10;99.90;;;;;;4970849;28;20184;-67
2023/04/28 00:10:30;;;;;;;8.90;7.93;;;12.00;99.90;;;;;;4971049;28;20215;-68
2023/04/28 00:12:55;;;;;;;15.50;8.70;;;12.00;99.90;;;;;;4971701;28;20262;-68
2023/04/28 00:15:21;;;;;;;13.27;8.50;;;11.90;99.90;;;;;;4977698;28;20518;-67
2023/04/28 00:17:46;;;;;;;9.90;7.90;;;11.90;99.90;;;;;;4978909;28;20725;-67
2023/04/28 00:20:12;;;;;;;10.73;8.40;;;12.00;99.90;;;;;;4974854;28;20689;-68
2023/04/28 00:22:38;;;;;;;9.87;8.90;;;12.00;99.90;;;;;;4968879;28;20206;-67
2023/04/28 00:25:04;;;;;;;14.20;9.53;;;12.10;99.90;;;;;;4971437;28;20232;-67
2023/04/28 00:27:31;;;;;;;8.80;7.23;;;12.10;99.90;;;;;;4972458;28;20839;-67
2023/04/28 00:29:56;;;;;;;12.27;8.67;;;12.00;99.90;;;;;;4970959;28;20447;-67
2023/04/28 00:32:22;;;;;;;10.30;9.20;;;12.00;99.90;;;;;;4969355;28;20514;-67
2023/04/28 00:34:47;;;;;;;10.43;8.50;;;12.00;99.90;;;;;;4970096;28;20756;-67
2023/04/28 00:37:13;;;;;;;9.67;8.40;;;12.00;99.90;;;;;;4974223;28;20188;-67
2023/04/28 00:39:40;;;;;;;10.80;8.37;;;12.00;99.90;;;;;;4972743;28;20180;-68
2023/04/28 00:42:06;;;;;;;10.93;8.20;;;12.00;99.90;;;;;;4975572;28;20219;-67
2023/04/28 00:44:31;;;;;;;12.37;9.10;;;12.00;99.90;;;;;;4974408;28;20444;-67
2023/04/28 00:46:58;;;;;;;11.90;8.50;;;12.00;99.90;;;;;;4975224;28;20188;-67
2023/04/28 00:49:24;;;;;;;13.37;10.10;;;12.00;99.90;;;;;;4977341;28;20225;-67
2023/04/28 00:51:50;;;;;;;15.73;9.80;;;12.00;99.90;;;;;;4971352;28;20491;-67
2023/04/28 00:54:16;;;;;;;13.40;9.30;;;12.00;99.90;;;;;;4973625;28;20477;-67
2023/04/28 00:56:42;;;;;;;11.50;8.17;;;12.00;99.90;;;;;;4966181;28;20187;-67
2023/04/28 00:59:08;;;;;;;8.93;8.07;;;12.00;99.90;;;;;;4974691;28;20192;-67
2023/04/28 01:01:34;;;;;;;12.30;8.30;;;12.00;99.90;;;;;;4973410;28;20525;-67
2023/04/28 01:04:00;;;;;;;11.03;8.40;;;12.10;99.90;;;;;;4972214;28;22029;-67
2023/04/28 01:06:27;;;;;;;11.40;8.30;;;12.20;99.90;;;;;;4974591;28;20494;-67
2023/04/28 01:08:53;;;;;;;8.90;8.00;;;12.20;99.90;;;;;;4974122;28;20594;-67
2023/04/28 01:11:19;;;;;;;7.00;6.30;;;12.30;99.90;;;;;;4973076;28;20440;-67
2023/04/28 01:13:44;;;;;;;10.60;7.23;;;12.30;99.90;;;;;;4976208;28;20345;-67
2023/04/28 01:16:10;;;;;;;7.50;6.80;;;12.30;99.90;;;;;;4968372;28;20538;-67
2023/04/28 01:18:36;;;;;;;7.00;6.30;;;12.30;99.90;;;;;;4975799;28;20176;-67
2023/04/28 01:21:03;;;;;;;10.87;6.73;;;12.30;99.90;;;;;;4979968;28;20749;-67
2023/04/28 01:23:28;;;;;;;7.60;6.87;;;12.20;99.90;;;;;;4975337;28;20291;-67
2023/04/28 01:25:55;;;;;;;8.47;7.33;;;12.30;99.90;;;;;;4974155;28;20485;-67
2023/04/28 01:28:20;;;;;;;8.50;6.43;;;12.30;99.90;;;;;;4973024;28;20172;-67
2023/04/28 01:30:46;;;;;;;9.00;6.30;;;12.30;99.90;;;;;;4977792;28;20454;-67
2023/04/28 01:33:11;;;;;;;7.13;6.13;;;12.40;99.90;;;;;;4972754;28;20204;-67
2023/04/28 01:35:37;;;;;;;8.67;6.40;;;12.40;99.90;;;;;;4971203;28;20188;-67
2023/04/28 01:38:03;;;;;;;7.50;5.80;;;12.40;99.90;;;;;;4982065;28;20192;-67
2023/04/28 01:40:28;;;;;;;5.20;4.80;;;12.50;99.90;;;;;;4975613;28;20208;-67
2023/04/28 01:42:54;;;;;;;8.07;5.80;;;12.50;99.90;;;;;;4972835;28;20747;-67
2023/04/28 01:45:19;;;;;;;9.43;5.00;;;12.50;99.90;;;;;;4971622;28;20658;-67
2023/04/28 01:47:45;;;;;;;6.73;5.00;;;12.50;99.90;;;;;;4973204;28;20181;-67
2023/04/28 01:50:10;;;;;;;5.57;5.07;;;12.50;99.90;;;;;;4971720;28;20192;-67
2023/04/28 01:52:36;;;;;;;6.27;5.67;;;12.50;99.90;;;;;;4977000;28;20203;-67
2023/04/28 01:55:01;;;;;;;5.80;5.17;;;12.40;99.90;;;;;;4970073;28;20201;-67
2023/04/28 01:57:28;;;;;;;5.80;5.30;;;12.30;99.90;;;;;;4972538;28;20184;-67
2023/04/28 01:59:53;;;;;;;6.10;5.50;;;12.30;99.90;;;;;;4973738;28;20204;-67
2023/04/28 02:02:19;;;;;;;6.50;5.90;;;12.30;99.90;;;;;;4973032;28;20474;-67
2023/04/28 02:04:45;;;;;;;6.03;5.47;;;12.30;99.90;;;;;;4976871;28;20183;-67
2023/04/28 02:07:10;;;;;;;6.13;5.63;;;12.20;99.90;;;;;;4972799;28;20200;-67
2023/04/28 02:09:36;;;;;;;5.87;5.37;;;12.20;99.90;;;;;;4973547;28;20709;-67
2023/04/28 02:12:02;;;;;;;6.10;5.50;;;12.20;99.90;;;;;;4972911;28;20208;-67
2023/04/28 02:14:28;;;;;;;5.63;5.13;;;12.10;99.90;;;;;;4971605;28;20180;-67
2023/04/28 02:16:53;;;;;;;6.27;5.67;;;12.10;99.90;;;;;;4970416;28;20535;-67
2023/04/28 02:19:19;;;;;;;8.43;5.40;;;12.10;99.90;;;;;;4973319;28;20924;-67
2023/04/28 02:21:45;;;;;;;5.93;5.33;;;12.10;99.90;;;;;;4972229;28;20577;-67
2023/04/28 02:24:10;;;;;;;6.03;5.30;;;12.10;99.90;;;;;;4971339;28;20226;-67
2023/04/28 02:26:36;;;;;;;7.10;5.03;;;12.10;99.90;;;;;;4973026;28;20677;-67
2023/04/28 02:29:04;;;;;;;6.20;5.20;;;12.10;99.90;;;;;;4981178;28;20180;-68
2023/04/28 02:31:30;;;;;;;5.60;5.10;;;12.10;99.90;;;;;;4971650;28;20188;-68
2023/04/28 02:33:55;;;;;;;5.70;5.03;;;12.20;99.90;;;;;;4972265;28;20522;-69
2023/04/28 02:36:21;;;;;;;5.97;4.97;;;12.20;99.90;;;;;;4970931;28;20439;-68
2023/04/28 02:38:47;;;;;;;4.90;4.47;;;12.20;99.90;;;;;;4977300;28;20319;-69
2023/04/28 02:41:14;;;;;;;5.63;5.17;;;12.20;99.90;;;;;;4978914;28;20207;-67
2023/04/28 02:43:40;;;;;;;6.17;5.43;;;12.20;99.90;;;;;;4968177;28;20226;-68
2023/04/28 02:46:05;;;;;;;4.57;4.10;;;12.10;99.90;;;;;;4972604;28;20903;-68
2023/04/28 02:48:34;;;;;;;5.83;3.90;;;12.10;99.90;;;;;;4973001;28;20180;-67
2023/04/28 02:51:00;;;;;;;4.77;4.40;;;12.10;99.90;;;;;;4973186;28;20630;-68
2023/04/28 02:53:25;;;;;;;5.20;4.70;;;12.10;99.90;;;;;;4970901;28;20504;-67
2023/04/28 02:55:51;;;;;;;4.80;4.40;;;12.20;99.90;;;;;;4972074;28;20439;-67
2023/04/28 02:58:17;;;;;;;12.53;4.83;;;12.10;99.90;;;;;;4973564;28;20183;-67
2023/04/28 03:00:42;;;;;;;5.17;4.77;;;12.10;99.90;;;;;;4973190;28;20207;-67
2023/04/28 03:03:08;;;;;;;5.83;5.33;;;11.90;99.90;;;;;;4973733;28;20331;-67
2023/04/28 03:05:33;;;;;;;6.33;5.70;;;11.80;99.90;;;;;;4973723;28;20184;-67
2023/04/28 03:07:59;;;;;;;7.63;5.90;;;11.80;99.90;;;;;;4972876;28;20172;-67
2023/04/28 03:10:25;;;;;;;6.17;5.67;;;11.70;99.90;;;;;;4973149;28;20183;-67
2023/04/28 03:12:50;;;;;;;12.10;5.97;;;11.70;99.90;;;;;;4973418;28;20861;-67
2023/04/28 03:15:16;;;;;;;5.57;5.00;;;11.70;99.90;;;;;;4973433;28;20712;-67
2023/04/28 03:17:42;;;;;;;8.30;4.83;;;11.70;99.90;;;;;;4973594;28;20184;-67
2023/04/28 03:20:08;;;;;;;5.20;4.70;;;11.60;99.90;;;;;;4973179;28;20221;-67
2023/04/28 03:22:34;;;;;;;5.43;4.77;;;11.60;99.90;;;;;;4973355;28;20449;-67
2023/04/28 03:25:00;;;;;;;6.00;5.23;;;11.60;99.90;;;;;;4973535;28;20502;-67
2023/04/28 03:27:26;;;;;;;5.80;5.20;;;11.60;99.90;;;;;;4973459;28;21049;-67
2023/04/28 03:29:51;;;;;;;6.73;4.63;;;11.70;99.90;;;;;;4971850;28;20435;-67
2023/04/28 03:32:17;;;;;;;5.03;4.50;;;11.70;99.90;;;;;;4973196;28;20598;-67
2023/04/28 03:34:43;;;;;;;5.33;4.80;;;11.80;99.90;;;;;;4973351;28;20180;-67
2023/04/28 03:37:08;;;;;;;5.87;5.33;;;11.80;99.90;;;;;;4973182;28;20226;-67
2023/04/28 03:39:34;;;;;;;7.90;4.83;;;11.80;99.90;;;;;;4973005;28;20169;-67
2023/04/28 03:42:00;;;;;;;4.93;4.50;;;11.80;99.90;;;;;;4973123;28;20192;-68
2023/04/28 03:44:25;;;;;;;4.67;4.27;;;11.80;99.90;;;;;;4973189;28;20527;-67
2023/04/28 03:46:51;;;;;;;5.03;4.50;;;11.80;99.90;;;;;;4971812;28;20187;-67
2023/04/28 03:49:16;;;;;;;4.93;4.53;;;11.90;99.90;;;;;;4972876;28;20187;-67
2023/04/28 03:51:42;;;;;;;4.83;4.43;;;11.90;99.90;;;;;;4973072;28;20677;-67
2023/04/28 03:54:07;;;;;;;4.87;4.43;;;11.90;99.90;;;;;;4973134;28;20179;-67
2023/04/28 03:56:33;;;;;;;5.00;4.60;;;11.90;99.90;;;;;;4973060;28;20690;-67
2023/04/28 03:58:59;;;;;;;6.27;5.60;;;11.90;99.90;;;;;;4972756;28;20180;-67
2023/04/28 04:01:25;;;;;;;5.40;4.97;;;11.90;99.90;;;;;;4972775;28;20482;-67
2023/04/28 04:03:50;;;;;;;5.00;4.50;;;12.00;99.90;;;;;;4973221;28;20227;-67
2023/04/28 04:06:16;;;;;;;5.97;4.80;;;12.00;99.90;;;;;;4973078;28;20621;-67
2023/04/28 04:08:42;;;;;;;4.50;4.10;;;11.90;99.90;;;;;;4972736;28;20485;-67
2023/04/28 04:11:07;;;;;;;6.37;5.77;;;11.90;99.90;;;;;;4972930;28;20218;-67
2023/04/28 04:13:33;;;;;;;6.10;5.50;;;12.00;99.90;;;;;;4989281;28;20214;-67
2023/04/28 04:15:58;;;;;;;5.27;4.77;;;12.00;99.90;;;;;;4996239;28;20233;-67
2023/04/28 04:18:24;;;;;;;4.90;4.50;;;12.00;99.90;;;;;;4995948;28;20167;-67
2023/04/28 04:20:52;;;;;;;5.33;4.70;;;12.10;99.90;;;;;;4996045;28;20696;-67
2023/04/28 04:23:18;;;;;;;4.50;4.10;;;12.20;99.90;;;;;;4996036;28;20190;-67
2023/04/28 04:25:43;;;;;;;5.67;5.17;;;12.20;99.90;;;;;;4996104;28;20418;-67
2023/04/28 04:28:09;;;;;;;5.53;4.30;;;12.40;99.90;;;;;;4995948;28;20172;-67
2023/04/28 04:30:35;;;;;;;8.30;3.90;;;12.40;99.90;;;;;;4995829;28;20187;-67
2023/04/28 04:33:00;;;;;;;4.60;4.10;;;12.50;99.90;;;;;;4996105;28;20202;-67
2023/04/28 04:35:26;;;;;;;4.17;3.77;;;12.50;99.90;;;;;;4995962;28;20563;-67
2023/04/28 04:37:51;;;;;;;12.13;4.37;;;12.50;99.90;;;;;;4995923;28;20653;-67
2023/04/28 04:40:17;;;;;;;4.70;4.30;;;12.30;99.90;;;;;;4995639;28;20210;-67
2023/04/28 04:42:42;;;;;;;5.37;4.67;;;12.20;99.90;;;;;;4995730;28;20222;-67
2023/04/28 04:45:08;;;;;;;5.70;4.50;;;12.20;99.90;;;;;;4995512;28;20179;-67
2023/04/28 04:47:34;;;;;;;6.10;4.10;;;12.20;99.90;;;;;;4995908;28;20180;-68
2023/04/28 04:49:59;;;;;;;5.73;4.60;;;12.10;99.90;;;;;;4995436;28;20516;-67
2023/04/28 04:52:25;;;;;;;5.00;4.50;;;12.10;99.90;;;;;;4995482;28;20199;-67
2023/04/28 04:54:50;;;;;;;6.90;5.13;;;12.00;99.90;;;;;;4995499;28;20184;-67
2023/04/28 04:57:16;;;;;;;6.23;5.60;;;11.90;99.90;;;;;;4995545;28;20669;-67
2023/04/28 04:59:41;;;;;;;5.53;5.00;;;11.80;99.90;;;;;;4993475;28;20171;-67
2023/04/28 05:02:07;;;;;;;10.00;6.00;;;11.70;99.90;;;;;;4975876;28;20251;-67
2023/04/28 05:04:32;;;;;;;7.40;6.07;;;11.70;99.90;;;;;;4975966;28;20169;-67
2023/04/28 05:06:58;;;;;;;6.77;6.17;;;11.60;99.90;;;;;;4975964;28;20712;-67
2023/04/28 05:09:23;;;;;;;7.27;6.57;;;11.50;99.90;;;;;;4975579;28;20672;-67
2023/04/28 05:14:17;;;;;;;6.13;5.63;;;11.50;99.90;;;;;;5012470;28;20214;-70
2023/04/28 05:16:42;;;;;;;7.50;6.80;;;11.40;99.90;;;;;;5015036;28;20963;-70
2023/04/28 05:19:08;;;;;;;7.60;6.50;;;11.40;99.90;;;;;;5014502;28;20171;-70
2023/04/28 05:21:33;;;;;;;9.13;7.10;;;11.40;99.90;;;;;;5014603;28;20210;-68
2023/04/28 05:23:59;;;;;;;7.40;6.80;;;11.40;99.90;;;;;;4996367;28;20199;-69
2023/04/28 05:26:25;;;;;;;7.87;7.07;;;11.40;99.90;;;;;;4995080;28;20591;-68
2023/04/28 05:28:51;;;;;;;7.60;6.90;;;11.40;99.90;;;;;;4994692;28;20191;-69
2023/04/28 05:31:16;;;;;;;9.20;8.30;;;11.40;99.90;;;;;;4994780;28;20951;-69
2023/04/28 05:33:42;;;;;;;7.67;6.67;;;11.50;99.90;;;;;;4995016;28;20218;-68
2023/04/28 05:36:08;;;;;;;14.80;7.00;;;11.50;99.90;;;;;;4994700;28;20168;-68
2023/04/28 05:38:34;;;;;;;8.13;7.43;;;11.50;99.90;;;;;;4993256;28;20199;-69
2023/04/28 05:41:01;;;;;;;11.83;7.70;;;11.50;99.90;;;;;;4994676;28;20454;-69
2023/04/28 05:43:27;;;;;;;9.23;7.53;;;11.50;99.90;;;;;;4994607;28;20991;-68
2023/04/28 05:45:52;;;;;;;9.23;7.80;;;11.60;99.90;;;;;;4994589;28;20502;-68
2023/04/28 05:48:18;;;;;;;8.30;7.60;;;11.60;99.90;;;;;;4994420;28;20174;-68
2023/04/28 05:50:44;;;;;;;7.30;6.60;;;11.60;99.90;;;;;;4994519;28;20177;-68
2023/04/28 05:53:10;;;;;;;8.00;6.87;;;11.60;99.90;;;;;;4994463;28;20439;-69
2023/04/28 05:55:35;;;;;;;11.27;8.30;;;11.60;99.90;;;;;;4994417;28;20489;-69
2023/04/28 05:58:02;;;;;;;9.13;7.80;;;11.60;99.90;;;;;;4994300;28;20186;-69
2023/04/28 06:00:27;;;;;;;8.67;7.70;;;11.60;99.90;;;;;;5001686;28;20206;-69
2023/04/28 06:02:53;;;;;;;8.50;7.70;;;11.60;99.90;;;;;;5013813;28;20445;-69
2023/04/28 06:05:20;;;;;;;8.20;7.30;;;11.60;99.90;;;;;;5013822;28;20174;-69
2023/04/28 06:07:45;;;;;;;12.30;7.83;;;11.60;99.90;;;;;;5013661;28;20175;-68
2023/04/28 06:10:11;;;;;;;9.23;7.27;;;11.60;99.90;;;;;;5013448;28;20432;-69
2023/04/28 06:12:37;;;;;;;9.57;7.00;;;11.60;99.90;;;;;;5013370;28;20242;-69
2023/04/28 06:15:03;;;;;;;8.77;7.87;;;11.60;99.90;;;;;;5013622;28;20175;-69
2023/04/28 06:17:31;;;;;;;9.57;6.60;;;11.60;99.90;;;;;;5013572;28;20224;-69
2023/04/28 06:19:57;;;;;;;7.80;7.00;;;11.60;99.90;;;;;;5013314;28;20472;-69
2023/04/28 06:22:26;;;;;;;8.87;7.97;;;11.70;99.90;;;;;;5013371;28;20446;-69
2023/04/28 06:24:51;;;;;;;9.23;8.33;;;11.70;99.90;;;;;;5013400;28;20428;-69
2023/04/28 06:27:17;;;;;;;9.87;7.60;;;11.70;99.90;;;;;;5013418;28;20418;-69
2023/04/28 06:29:43;;;;;;;10.97;8.20;;;11.60;99.90;;;;;;5011931;28;20217;-69
2023/04/28 06:32:09;;;;;;;8.50;7.60;;;11.70;99.90;;;;;;5013307;28;20206;-69
2023/04/28 06:34:36;;;;;;;8.83;7.50;;;11.80;99.90;;;;;;5012607;28;20841;-69
2023/04/28 06:37:01;;;;;;;8.23;7.40;;;11.80;99.90;;;;;;5013189;28;20189;-69
2023/04/28 06:39:27;;;;;;;13.97;7.30;;;11.80;99.90;;;;;;5012917;28;20497;-69
2023/04/28 06:41:52;;;;;;;12.97;8.60;;;11.90;99.90;;;;;;5013025;28;20230;-69
2023/04/28 06:44:18;;;;;;;11.80;8.67;;;12.00;99.90;;;;;;5013155;28;20175;-69
2023/04/28 06:46:44;;;;;;;13.50;9.90;;;12.00;99.90;;;;;;5013098;28;20240;-69
2023/04/28 06:49:09;;;;;;;9.80;8.47;;;12.00;99.90;;;;;;5012798;28;20500;-69
2023/04/28 06:51:35;;;;;;;13.67;7.67;;;12.00;99.90;;;;;;5012902;28;20175;-69
2023/04/28 06:54:01;;;;;;;9.30;8.40;;;12.10;99.90;;;;;;5012745;28;20278;-69
2023/04/28 06:56:26;;;;;;;9.07;7.67;;;12.20;99.90;;;;;;5012922;28;20421;-69
2023/04/28 06:58:54;;;;;;;8.20;7.27;;;12.20;99.90;;;;;;5012785;28;20182;-69
2023/04/28 07:01:20;;;;;;;9.50;8.60;;;12.20;99.90;;;;;;4997877;28;20195;-69
2023/04/28 07:03:45;;;;;;;11.70;8.77;;;12.20;99.90;;;;;;4993088;28;20582;-69
2023/04/28 07:06:11;;;;;;;9.17;8.23;;;12.20;99.90;;;;;;4993052;28;20250;-69
2023/04/28 07:08:37;;;;;;;8.73;7.83;;;12.20;99.90;;;;;;4992836;28;20254;-69
2023/04/28 07:11:05;;;;;;;8.57;6.87;;;12.20;99.90;;;;;;4993272;28;20950;-69
2023/04/28 07:13:32;;;;;;;7.73;7.03;;;12.20;99.90;;;;;;4992831;28;20207;-69
2023/04/28 07:15:58;;;;;;;7.97;7.10;;;12.30;99.90;;;;;;4993040;28;20979;-69
2023/04/28 07:18:23;;;;;;;7.27;6.67;;;12.40;99.90;;;;;;4992677;28;20845;-69
2023/04/28 07:20:49;;;;;;;7.63;6.57;;;12.40;99.90;;;;;;4992840;28;20455;-69
2023/04/28 07:23:15;;;;;;;8.07;7.37;;;12.40;99.90;;;;;;4992714;28;20540;-69
2023/04/28 07:25:40;;;;;;;5.97;5.50;;;12.40;99.90;;;;;;4993093;28;20254;-69
2023/04/28 07:28:06;;;;;;;7.03;6.43;;;12.50;99.90;;;;;;4991430;28;20172;-69
2023/04/28 07:30:32;;;;;;;8.00;7.30;;;12.60;99.90;;;;;;4992619;28;20683;-69
2023/04/28 07:32:58;;;;;;;8.80;7.90;;;12.60;99.90;;;;;;4992809;28;20443;-69
2023/04/28 07:35:24;;;;;;;8.70;7.90;;;12.60;99.90;;;;;;4992731;28;20434;-69
2023/04/28 07:37:50;;;;;;;6.23;5.63;;;12.70;99.90;;;;;;4992542;28;20447;-69
2023/04/28 07:40:16;;;;;;;6.63;5.97;;;12.60;99.90;;;;;;4992455;28;20473;-69
2023/04/28 07:42:42;;;;;;;10.63;6.27;;;12.60;99.90;;;;;;4992635;28;20219;-69
2023/04/28 07:45:08;;;;;;;7.13;6.20;;;12.60;99.90;;;;;;4992529;28;20419;-69
2023/04/28 07:47:34;;;;;;;7.57;5.47;;;12.60;99.90;;;;;;4992616;28;20172;-69
2023/04/28 07:50:03;;;;;;;8.83;6.80;;;12.60;99.90;;;;;;4992319;28;20788;-69
2023/04/28 07:52:29;;;;;;;6.20;5.43;;;12.60;99.90;;;;;;4992332;28;20443;-70
2023/04/28 07:54:55;;;;;;;7.80;6.20;;;12.60;99.90;;;;;;4992754;28;20426;-69
2023/04/28 07:57:21;;;;;;;7.33;6.63;;;12.60;99.90;;;;;;4992718;28;20423;-70
2023/04/28 07:59:46;;;;;;;8.93;8.00;;;12.50;99.90;;;;;;4994087;28;20190;-69
2023/04/28 08:02:13;;;;;;;7.90;7.10;;;12.50;99.90;;;;;;5012081;28;20680;-69
2023/04/28 08:04:38;;;;;;;8.23;6.40;;;12.50;99.90;;;;;;5012086;28;20592;-70
2023/04/28 08:07:04;;;;;;;8.00;6.83;;;12.50;99.90;;;;;;4984261;28;20511;-71
2023/04/28 08:09:29;;;;;;;7.90;6.87;;;12.50;99.90;;;;;;4980531;28;20168;-71
2023/04/28 08:11:55;;;;;;;10.70;6.70;;;12.40;99.90;;;;;;4983502;28;20182;-71
2023/04/28 08:14:21;;;;;;;8.47;7.67;;;12.40;99.90;;;;;;4992314;28;20574;-70
2023/04/28 08:16:47;;;;;;;8.30;6.53;;;12.40;99.90;;;;;;4985668;28;20181;-71
2023/04/28 08:19:13;;;;;;;8.73;7.50;;;12.40;99.90;;;;;;4991977;28;20816;-70
2023/04/28 08:21:38;;;;;;;8.50;7.60;;;12.40;99.90;;;;;;4991786;28;20576;-70
2023/04/28 08:24:04;;;;;;;8.60;7.80;;;12.40;99.90;;;;;;4992236;28;20199;-70
2023/04/28 08:26:30;;;;;;;8.93;8.03;;;12.40;99.90;;;;;;4992135;28;20676;-70
2023/04/28 08:28:55;;;;;;;9.50;8.00;;;12.50;99.90;;;;;;4990479;28;20255;-70
2023/04/28 08:31:21;;;;;;;14.70;9.43;;;12.50;99.90;;;;;;4992161;28;20180;-71
2023/04/28 08:33:50;;;;;;;11.00;7.83;;;12.50;99.90;;;;;;4991558;28;20246;-71
2023/04/28 08:36:16;;;;;;;8.80;7.83;;;12.60;99.90;;;;;;4991942;28;20239;-71
2023/04/28 08:38:43;;;;;;;9.77;8.87;;;12.70;99.90;;;;;;4991908;28;20768;-71
2023/04/28 08:41:09;;;;;;;9.10;8.07;;;12.80;99.90;;;;;;4992194;28;20889;-71
2023/04/28 08:43:36;;;;;;;10.20;8.00;;;12.90;99.90;;;;;;4991615;28;20497;-71
2023/04/28 08:46:06;;;;;;;9.93;8.30;;;12.90;99.90;;;;;;4987064;28;20426;-71
2023/04/28 08:48:43;;;;;;;9.13;8.33;;;13.10;99.90;;;;;;4991365;28;20901;-70
2023/04/28 08:51:14;;;;;;;7.50;6.90;;;13.20;99.90;;;;;;4991669;28;20430;-70
2023/04/28 08:53:46;;;;;;;7.20;6.50;;;13.20;99.90;;;;;;4991905;28;20532;-71
2023/04/28 08:56:15;;;;;;;9.33;7.00;;;13.20;99.90;;;;;;4991886;28;20418;-70
2023/04/28 08:58:41;;;;;;;7.90;7.20;;;13.20;99.90;;;;;;4993291;28;20430;-70
2023/04/28 09:01:07;;;;;;;9.83;8.87;;;13.30;99.90;;;;;;5007927;28;20461;-71
2023/04/28 09:03:33;;;;;;;9.00;7.10;;;13.30;99.90;;;;;;5007395;28;20549;-71
2023/04/28 09:06:00;;;;;;;8.20;7.40;;;13.30;99.90;;;;;;4995349;28;20417;-71
2023/04/28 09:08:26;;;;;;;7.47;6.87;;;13.30;99.90;;;;;;4995057;28;20214;-71
2023/04/28 09:11:09;;;;;;;7.00;6.30;;;13.40;99.90;;;;;;4995259;28;20422;-70
2023/04/28 09:13:35;;;;;;;8.30;7.50;;;13.50;99.90;;;;;;4994889;28;20722;-70
2023/04/28 09:16:02;;;;;;;7.83;7.00;;;13.60;99.90;;;;;;4995070;28;20911;-70
2023/04/28 09:18:32;;;;;;;8.90;7.33;;;13.70;99.90;;;;;;4994924;28;20477;-71
2023/04/28 09:21:08;;;;;;;7.50;6.80;;;13.70;99.90;;;;;;4994852;28;20458;-71
2023/04/28 09:23:45;;;;;;;11.87;8.20;;;13.70;99.90;;;;;;4995067;28;20505;-70
2023/04/28 09:26:10;;;;;;;10.03;6.70;;;13.80;99.90;;;;;;4994898;28;20417;-70
2023/04/28 09:28:36;;;;;;;7.17;6.57;;;13.90;99.90;;;;;;4994692;28;20860;-70
2023/04/28 09:31:02;;;;;;;7.30;6.47;;;14.00;99.90;;;;;;4994833;28;20175;-70
2023/04/28 09:33:28;;;;;;;8.10;5.90;;;14.00;99.90;;;;;;4994741;28;20202;-70
2023/04/28 09:35:54;;;;;;;6.20;5.33;;;14.00;99.90;;;;;;4994857;28;20831;-70
2023/04/28 09:38:21;;;;;;;6.23;5.70;;;14.10;99.90;;;;;;4994427;28;20587;-70
2023/04/28 09:40:56;;;;;;;7.80;5.50;;;14.40;99.90;;;;;;4994446;28;20196;-70
2023/04/28 09:43:33;;;;;;;5.23;4.83;;;14.50;99.90;;;;;;4994555;28;20430;-70
2023/04/28 09:46:04;;;;;;;5.57;5.17;;;14.70;99.90;;;;;;4994671;28;20418;-70
2023/04/28 09:48:37;;;;;;;6.23;5.13;;;14.70;99.90;;;;;;4994326;28;20411;-69
2023/04/28 09:51:04;;;;;;;6.67;5.60;;;14.90;99.90;;;;;;4994337;28;20418;-70
2023/04/28 09:53:31;;;;;;;6.20;5.03;;;15.00;99.90;;;;;;4994368;28;20442;-69
2023/04/28 09:55:59;;;;;;;6.33;5.67;;;15.10;99.90;;;;;;4994379;28;20426;-69
2023/04/28 09:58:26;;;;;;;4.93;4.40;;;15.40;99.90;;;;;;4994104;28;20419;-69
2023/04/28 10:00:53;;;;;;;7.87;7.07;;;16.00;99.90;;;;;;4994160;28;20888;-69
2023/04/28 10:03:24;;;;;;;5.70;5.20;;;16.70;99.90;;;;;;4994214;28;20442;-69
2023/04/28 10:05:52;;;;;;;4.77;3.97;;;16.60;99.90;;;;;;4994062;28;20410;-69
2023/04/28 10:08:18;;;;;;;4.53;4.13;;;16.50;99.90;;;;;;4993956;28;20459;-69
2023/04/28 10:10:47;;;;;;;5.63;4.63;;;16.60;99.90;;;;;;4993083;28;20842;-69
2023/04/28 10:13:14;;;;;;;4.43;4.13;;;16.60;99.90;;;;;;4993941;28;20470;-68
2023/04/28 10:15:40;;;;;;;5.07;3.80;;;16.50;99.90;;;;;;4993967;28;20426;-69
2023/04/28 10:18:07;;;;;;;4.40;3.73;;;16.60;99.90;;;;;;4993864;28;20477;-69
2023/04/28 10:20:33;;;;;;;4.27;3.67;;;16.70;99.90;;;;;;4993412;28;20210;-69
2023/04/28 10:23:23;;;;;;;4.00;3.60;;;16.90;99.90;;;;;;4994328;28;20443;-68
2023/04/28 10:25:56;;;;;;;3.90;3.30;;;17.20;99.90;;;;;;4993915;28;20782;-69
2023/04/28 10:28:22;;;;;;;3.60;2.93;;;17.30;99.90;;;;;;4993487;28;20414;-68
2023/04/28 10:31:10;;;;;;;7.17;4.50;;;17.40;99.90;;;;;;4993566;28;20454;-68
2023/04/28 10:33:37;;;;;;;3.07;2.60;;;17.50;99.90;;;;;;4993697;28;20450;-68
2023/04/28 10:36:05;;;;;;;3.67;2.67;;;17.40;99.90;;;;;;4993603;28;20771;-68
2023/04/28 10:38:30;;;;;;;1.90;1.80;;;17.30;99.90;;;;;;4993426;28;20841;-67
2023/04/28 10:41:01;;;;;;;2.83;2.47;;;17.30;99.90;;;;;;4993424;28;20458;-67
2023/04/28 10:43:27;;;;;;;2.30;2.10;;;17.30;99.90;;;;;;4993293;28;20654;-67
2023/04/28 10:45:52;;;;;;;1.90;1.80;;;17.30;99.90;;;;;;4993530;28;20470;-68
2023/04/28 10:48:19;;;;;;;3.10;1.77;;;17.00;99.90;;;;;;4992111;28;20250;-68
2023/04/28 10:51:03;;;;;;;1.80;1.13;;;16.80;99.90;;;;;;4980607;28;20212;-69
2023/04/28 10:53:44;;;;;;;1.50;1.40;;;16.60;99.90;;;;;;4973829;28;20471;-69
2023/04/28 10:56:20;;;;;;;1.77;1.10;;;16.80;99.90;;;;;;4974044;28;20893;-67
2023/04/28 10:58:50;;;;;;;1.50;1.40;;;17.10;99.90;;;;;;4973551;28;20425;-68
2023/04/28 11:01:23;;;;;;;1.40;1.30;;;17.30;99.90;;;;;;5001889;28;20458;-68
2023/04/28 11:04:16;;;;;;;1.47;1.33;;;17.40;99.90;;;;;;5012690;28;20455;-67
2023/04/28 11:06:44;;;;;;;1.40;1.30;;;17.60;99.90;;;;;;5012695;28;20414;-68
2023/04/28 11:09:13;;;;;;;1.37;1.27;;;17.70;99.90;;;;;;5012428;28;20414;-67
2023/04/28 11:11:59;;;;;;;1.73;1.07;;;17.90;99.90;;;;;;5012774;28;20996;-68
2023/04/28 11:14:25;;;;;;;1.50;1.23;;;17.90;99.90;;;;;;5012858;28;20445;-67
2023/04/28 11:16:52;;;;;;;1.77;1.10;;;18.10;99.90;;;;;;5012432;28;20426;-68
2023/04/28 11:19:26;;;;;;;1.00;0.90;;;18.10;99.90;;;;;;5012160;28;20668;-68
2023/04/28 11:21:54;;;;;;;1.40;1.30;;;18.20;99.90;;;;;;5011966;28;20469;-68
2023/04/28 11:24:21;;;;;;;1.00;1.00;;;18.00;99.90;;;;;;5012346;28;20431;-68
2023/04/28 11:26:46;;;;;;;1.20;1.10;;;17.80;99.90;;;;;;5012576;28;20422;-68
2023/04/28 11:29:13;;;;;;;3.90;1.40;;;17.80;99.90;;;;;;5012110;28;20788;-68
2023/04/28 11:31:40;;;;;;;1.37;1.10;;;17.90;99.90;;;;;;5012923;28;20171;-69
2023/04/28 11:34:15;;;;;;;1.37;1.00;;;18.30;99.90;;;;;;5012271;28;20532;-69
2023/04/28 11:36:41;;;;;;;0.90;0.90;;;18.70;99.90;;;;;;5012234;28;20772;-69
2023/04/28 11:39:09;;;;;;;1.70;1.20;;;18.90;99.90;;;;;;5011930;28;20432;-68
2023/04/28 11:41:36;;;;;;;1.20;1.00;;;19.10;99.90;;;;;;4972950;28;20219;-69
2023/04/28 11:44:12;;;;;;;4.10;1.10;;;19.40;99.90;;;;;;4973110;28;20439;-69
2023/04/28 11:46:56;;;;;;;1.53;1.37;;;19.80;99.90;;;;;;4973340;28;20443;-69
2023/04/28 11:49:32;;;;;;;1.50;1.40;;;20.10;99.90;;;;;;4972715;28;20837;-69
2023/04/28 11:52:04;;;;;;;1.30;1.20;;;19.70;99.90;;;;;;4972844;28;20431;-69
2023/04/28 11:54:30;;;;;;;1.03;0.93;;;19.40;99.90;;;;;;4973008;28;20913;-69
2023/04/28 11:56:57;;;;;;;1.47;0.97;;;19.20;99.90;;;;;;4991092;28;20435;-69
2023/04/28 11:59:28;;;;;;;1.33;1.23;;;19.20;99.90;;;;;;4988622;28;20441;-69
2023/04/28 12:01:56;;;;;;;1.30;1.20;;;19.20;99.90;;;;;;4999288;28;20470;-70
2023/04/28 12:04:36;;;;;;;1.57;1.10;;;19.20;99.90;;;;;;4992338;28;20431;-69
2023/04/28 12:07:13;;;;;;;1.30;1.20;;;19.40;99.90;;;;;;4992571;28;20419;-69
2023/04/28 12:09:43;;;;;;;4.30;2.77;;;19.30;99.90;;;;;;4992151;28;20422;-69
2023/04/28 12:12:30;;;;;;;1.20;1.20;;;19.30;99.90;;;;;;4992291;28;21021;-69
2023/04/28 12:15:05;;;;;;;1.07;0.90;;;19.30;99.90;;;;;;4992062;28;20458;-69
2023/04/28 12:17:33;;;;;;;1.83;1.20;;;19.20;99.90;;;;;;4978750;28;20434;-69
2023/04/28 12:20:00;;;;;;;0.80;0.80;;;19.70;99.90;;;;;;4972514;28;20527;-68
2023/04/28 12:22:27;;;;;;;2.77;1.30;;;20.20;99.90;;;;;;4972236;28;20875;-69
2023/04/28 12:25:09;;;;;;;1.17;1.07;;;20.30;99.90;;;;;;4972233;28;20419;-69
2023/04/28 12:27:38;;;;;;;2.13;1.30;;;20.30;99.90;;;;;;4972644;28;20419;-69
2023/04/28 12:30:24;;;;;;;1.20;1.10;;;20.30;99.90;;;;;;4972464;28;20445;-69
2023/04/28 12:32:50;;;;;;;0.97;0.93;;;20.50;99.90;;;;;;4972692;28;21044;-69
2023/04/28 12:35:16;;;;;;;1.00;0.90;;;20.60;99.90;;;;;;4976569;28;20514;-69
2023/04/28 12:37:43;;;;;;;4.10;1.10;;;20.30;99.90;;;;;;4976279;28;20187;-70
2023/04/28 12:40:09;;;;;;;1.37;1.27;;;20.50;99.90;;;;;;4983862;28;20283;-69
2023/04/28 12:42:35;;;;;;;1.13;1.00;;;20.50;99.90;;;;;;4995783;28;20447;-69
2023/04/28 12:45:01;;;;;;;0.83;0.83;;;20.20;99.90;;;;;;4995682;28;20426;-69
2023/04/28 12:47:27;;;;;;;1.30;1.20;;;19.80;99.90;;;;;;4995773;28;20423;-69